createdAt,value
2018-08-12T00:01:44.780Z,99022.12
2018-08-12T00:04:13.026Z,99026.86
2018-08-12T00:06:41.155Z,99021.78
2018-08-12T00:09:10.204Z,99025.46
2018-08-12T00:11:38.351Z,99017.63
2018-08-12T00:14:07.067Z,99019.70
2018-08-12T00:16:35.681Z,99020.05
2018-08-12T00:19:04.023Z,99014.35
2018-08-12T00:21:32.606Z,99013.33
2018-08-12T00:24:00.811Z,99010.61
2018-08-12T00:26:29.302Z,99008.09
2018-08-12T00:28:57.535Z,99010.36
2018-08-12T00:31:25.811Z,99003.99
2018-08-12T00:33:53.904Z,99005.66
2018-08-12T00:36:22.095Z,99003.92
2018-08-12T00:38:50.234Z,98998.50
2018-08-12T00:41:18.338Z,98990.86
2018-08-12T00:43:46.556Z,98995.31
2018-08-12T00:46:14.739Z,98991.65
2018-08-12T00:48:42.854Z,98989.77
2018-08-12T00:51:11.048Z,98987.98
2018-08-12T00:53:39.199Z,98987.91
2018-08-12T00:56:07.330Z,98984.16
2018-08-12T00:58:35.815Z,98976.98
2018-08-12T01:01:03.964Z,98983.42
2018-08-12T01:03:32.512Z,98985.22
2018-08-12T01:06:00.652Z,98983.50
2018-08-12T01:08:28.926Z,98982.53
2018-08-12T01:10:57.029Z,98979.48
2018-08-12T01:13:25.294Z,98982.14
2018-08-12T01:15:53.553Z,98977.58
2018-08-12T01:18:21.715Z,98976.91
2018-08-12T01:20:49.927Z,98974.41
2018-08-12T01:23:18.063Z,98972.84
2018-08-12T01:25:46.326Z,98971.75
2018-08-12T01:28:14.435Z,98972.27
2018-08-12T01:30:42.620Z,98972.97
2018-08-12T01:33:10.735Z,98969.99
2018-08-12T01:35:38.851Z,98968.85
2018-08-12T01:38:06.967Z,98966.92
2018-08-12T01:40:35.254Z,98970.55
2018-08-12T01:43:03.593Z,98961.77
2018-08-12T01:45:31.758Z,98960.40
2018-08-12T01:47:59.859Z,98960.40
2018-08-12T01:50:28.007Z,98955.16
2018-08-12T01:52:56.166Z,98953.78
2018-08-12T01:55:24.283Z,98953.46
2018-08-12T01:57:52.414Z,98954.48
2018-08-12T02:00:21.867Z,98949.41
2018-08-12T02:02:50.524Z,98939.27
2018-08-12T02:05:19.107Z,98943.89
2018-08-12T02:07:47.792Z,98937.09
2018-08-12T02:10:15.902Z,98934.66
2018-08-12T02:12:44.006Z,98941.56
2018-08-12T02:15:12.527Z,98945.82
2018-08-12T02:17:41.200Z,98928.55
2018-08-12T02:20:10.181Z,98920.73
2018-08-12T02:22:39.174Z,98923.99
2018-08-12T02:25:08.143Z,98922.34
2018-08-12T02:27:36.413Z,98921.30
2018-08-12T02:30:05.230Z,98920.60
2018-08-12T02:32:33.497Z,98917.09
2018-08-12T02:35:01.629Z,98909.27
2018-08-12T02:37:30.190Z,98907.18
2018-08-12T02:39:58.519Z,98898.59
2018-08-12T02:42:26.745Z,98895.84
2018-08-12T02:44:55.109Z,98890.83
2018-08-12T02:47:23.219Z,98884.11
2018-08-12T02:49:51.690Z,98884.62
2018-08-12T02:52:20.002Z,98883.02
2018-08-12T02:54:48.111Z,98881.33
2018-08-12T02:57:16.294Z,98879.68
2018-08-12T02:59:44.421Z,98885.93
2018-08-12T03:02:12.759Z,98876.08
2018-08-12T03:04:41.276Z,98876.48
2018-08-12T03:07:09.434Z,98875.70
2018-08-12T03:09:37.591Z,98872.86
2018-08-12T03:12:06.103Z,98874.97
2018-08-12T03:14:34.669Z,98867.73
2018-08-12T03:17:02.818Z,98867.88
2018-08-12T03:19:30.999Z,98873.17
2018-08-12T03:21:59.115Z,98868.75
2018-08-12T03:24:27.263Z,98869.38
2018-08-12T03:26:55.786Z,98862.05
2018-08-12T03:29:24.028Z,98865.09
2018-08-12T03:31:52.430Z,98864.59
2018-08-12T03:34:20.476Z,98857.83
2018-08-12T03:36:48.591Z,98859.02
2018-08-12T03:39:16.804Z,98854.03
2018-08-12T03:41:44.958Z,98860.88
2018-08-12T03:44:13.090Z,98859.42
2018-08-12T03:46:41.336Z,98855.23
2018-08-12T03:49:09.552Z,98859.83
2018-08-12T03:51:37.813Z,98859.99
2018-08-12T03:54:06.170Z,98853.48
2018-08-12T03:56:34.486Z,98856.30
2018-08-12T03:59:02.621Z,98855.11
2018-08-12T04:01:30.855Z,98860.00
2018-08-12T04:03:58.994Z,98852.64
2018-08-12T04:06:27.116Z,98848.98
2018-08-12T04:08:55.437Z,98847.95
2018-08-12T04:11:23.611Z,98844.27
2018-08-12T04:13:51.760Z,98852.64
2018-08-12T04:16:19.887Z,98841.06
2018-08-12T04:18:48.041Z,98845.31
2018-08-12T04:21:16.354Z,98845.19
2018-08-12T04:23:44.470Z,98846.20
2018-08-12T04:26:12.614Z,98848.18
2018-08-12T04:28:40.752Z,98849.72
2018-08-12T04:31:08.870Z,98845.54
2018-08-12T04:33:37.425Z,98848.27
2018-08-12T04:36:05.646Z,98844.44
2018-08-12T04:38:33.787Z,98845.58
2018-08-12T04:41:01.899Z,98851.08
2018-08-12T04:43:30.002Z,98849.23
2018-08-12T04:45:58.199Z,98847.12
2018-08-12T04:48:26.307Z,98844.31
2018-08-12T04:50:54.480Z,98844.66
2018-08-12T04:53:22.626Z,98843.49
2018-08-12T04:55:50.791Z,98849.95
2018-08-12T04:58:19.194Z,98846.80
2018-08-12T05:00:47.337Z,98843.28
2018-08-12T05:03:15.430Z,98847.55
2018-08-12T05:05:43.622Z,98847.63
2018-08-12T05:08:11.834Z,98845.63
2018-08-12T05:10:40.184Z,98847.73
2018-08-12T05:13:08.520Z,98842.60
2018-08-12T05:15:36.638Z,98834.45
2018-08-12T05:18:04.852Z,98835.34
2018-08-12T05:20:33.290Z,98828.23
2018-08-12T05:23:01.579Z,98826.36
2018-08-12T05:25:29.687Z,98823.33
2018-08-12T05:27:57.870Z,98819.87
2018-08-12T05:30:26.094Z,98818.92
2018-08-12T05:32:54.214Z,98806.13
2018-08-12T05:35:22.568Z,98804.55
2018-08-12T05:37:50.800Z,98798.66
2018-08-12T05:40:18.906Z,98804.29
2018-08-12T05:42:47.044Z,98802.51
2018-08-12T05:45:15.182Z,98799.09
2018-08-12T05:47:43.429Z,98795.59
2018-08-12T05:50:11.674Z,98791.92
2018-08-12T05:52:39.819Z,98788.23
2018-08-12T05:55:08.655Z,98788.95
2018-08-12T05:57:36.887Z,98782.92
2018-08-12T06:00:07.027Z,98790.17
2018-08-12T06:02:35.419Z,98786.02
2018-08-12T06:05:03.537Z,98786.60
2018-08-12T06:07:31.728Z,98782.95
2018-08-12T06:09:59.954Z,98782.84
2018-08-12T06:12:28.199Z,98783.47
2018-08-12T06:14:56.431Z,98774.09
2018-08-12T06:17:24.774Z,98775.25
2018-08-12T06:19:52.864Z,98772.11
2018-08-12T06:22:20.994Z,98770.19
2018-08-12T06:24:49.165Z,98765.82
2018-08-12T06:27:17.841Z,98766.48
2018-08-12T06:29:46.083Z,98766.87
2018-08-12T06:32:14.448Z,98761.17
2018-08-12T06:34:42.784Z,98751.48
2018-08-12T06:37:11.260Z,98752.45
2018-08-12T06:39:39.458Z,98749.66
2018-08-12T06:42:07.811Z,98754.14
2018-08-12T06:44:36.148Z,98754.31
2018-08-12T06:47:04.294Z,98752.30
2018-08-12T06:49:32.425Z,98747.58
2018-08-12T06:52:00.585Z,98751.92
2018-08-12T06:54:28.777Z,98749.70
2018-08-12T06:56:56.884Z,98746.66
2018-08-12T06:59:24.992Z,98735.34
2018-08-12T07:01:53.100Z,98735.08
2018-08-12T07:04:21.326Z,98738.06
2018-08-12T07:06:49.811Z,98735.50
2018-08-12T07:09:17.959Z,98731.09
2018-08-12T07:11:46.091Z,98726.92
2018-08-12T07:14:14.328Z,98727.27
2018-08-12T07:16:42.574Z,98729.98
2018-08-12T07:19:11.303Z,98728.24
2018-08-12T07:21:39.450Z,98728.10
2018-08-12T07:24:07.628Z,98733.11
2018-08-12T07:26:35.758Z,98731.62
2018-08-12T07:29:03.907Z,98729.82
2018-08-12T07:31:32.742Z,98724.80
2018-08-12T07:34:01.042Z,98722.56
2018-08-12T07:36:29.260Z,98722.36
2018-08-12T07:38:57.805Z,98725.34
2018-08-12T07:41:26.069Z,98723.78
2018-08-12T07:43:54.198Z,98721.73
2018-08-12T07:46:22.391Z,98720.51
2018-08-12T07:48:50.565Z,98714.96
2018-08-12T07:51:19.029Z,98711.03
2018-08-12T07:53:47.154Z,98703.06
2018-08-12T07:56:15.427Z,98702.58
2018-08-12T07:58:43.993Z,98697.26
2018-08-12T08:01:12.375Z,98697.27
2018-08-12T08:03:40.610Z,98707.50
2018-08-12T08:06:08.745Z,98696.92
2018-08-12T08:08:36.831Z,98699.10
2018-08-12T08:11:05.174Z,98690.41
2018-08-12T08:13:33.563Z,98694.72
2018-08-12T08:16:01.706Z,98693.41
2018-08-12T08:18:29.807Z,98689.20
2018-08-12T08:20:57.969Z,98687.38
2018-08-12T08:23:26.134Z,98686.61
2018-08-12T08:25:54.397Z,98693.28
2018-08-12T08:28:22.438Z,98695.70
2018-08-12T08:30:50.562Z,98697.59
2018-08-12T08:33:18.816Z,98696.58
2018-08-12T08:35:46.919Z,98689.41
2018-08-12T08:38:15.185Z,98690.50
2018-08-12T08:40:43.474Z,98691.06
2018-08-12T08:43:11.594Z,98690.29
2018-08-12T08:45:39.854Z,98681.78
2018-08-12T08:48:08.075Z,98674.87
2018-08-12T08:50:36.248Z,98678.12
2018-08-12T08:53:04.383Z,98675.20
2018-08-12T08:55:32.567Z,98672.58
2018-08-12T08:58:00.627Z,98672.58
2018-08-12T09:00:28.822Z,98671.80
2018-08-12T09:02:57.023Z,98661.96
2018-08-12T09:05:25.198Z,98652.11
2018-08-12T09:07:53.501Z,98648.64
2018-08-12T09:10:21.778Z,98653.45
2018-08-12T09:12:49.962Z,98652.67
2018-08-12T09:15:19.256Z,98650.00
2018-08-12T09:17:48.025Z,98647.62
2018-08-12T09:20:17.498Z,98643.37
2018-08-12T09:22:45.662Z,98643.89
2018-08-12T09:25:18.963Z,98647.36
2018-08-12T09:27:47.082Z,98648.17
2018-08-12T09:30:17.406Z,98646.58
2018-08-12T09:32:46.270Z,98641.25
2018-08-12T09:35:14.697Z,98635.68
2018-08-12T09:37:43.048Z,98635.94
2018-08-12T09:40:14.160Z,98631.41
2018-08-12T09:42:43.379Z,98630.36
2018-08-12T09:45:13.745Z,98627.94
2018-08-12T09:47:41.865Z,98627.70
2018-08-12T09:50:10.966Z,98622.63
2018-08-12T09:52:39.442Z,98617.58
2018-08-12T09:55:08.766Z,98610.94
2018-08-12T09:57:36.949Z,98603.20
2018-08-12T10:00:08.874Z,98602.39
2018-08-12T10:02:37.239Z,98611.45
2018-08-12T10:05:06.109Z,98606.93
2018-08-12T10:07:34.348Z,98608.52
2018-08-12T10:10:03.400Z,98604.23
2018-08-12T10:12:31.502Z,98595.16
2018-08-12T10:14:59.627Z,98588.20
2018-08-12T10:17:31.701Z,98591.40
2018-08-12T10:19:59.843Z,98590.34
2018-08-12T10:22:27.986Z,98583.38
2018-08-12T10:24:56.111Z,98579.09
2018-08-12T10:27:24.541Z,98576.68
2018-08-12T10:29:52.695Z,98571.08
2018-08-12T10:32:20.921Z,98578.55
2018-08-12T10:34:49.170Z,98569.75
2018-08-12T10:37:17.283Z,98566.25
2018-08-12T10:39:45.595Z,98564.16
2018-08-12T10:42:13.822Z,98566.25
2018-08-12T10:44:42.092Z,98553.98
2018-08-12T10:47:10.218Z,98559.34
2018-08-12T10:49:38.377Z,98557.73
2018-08-12T10:52:06.552Z,98543.84
2018-08-12T10:54:34.768Z,98536.09
2018-08-12T10:57:03.006Z,98529.95
2018-08-12T10:59:31.217Z,98524.59
2018-08-12T11:01:59.290Z,98520.84
2018-08-12T11:04:27.611Z,98520.03
2018-08-12T11:06:55.719Z,98514.93
2018-08-12T11:09:23.978Z,98515.97
2018-08-12T11:11:52.119Z,98517.54
2018-08-12T11:14:20.394Z,98514.86
2018-08-12T11:16:48.670Z,98501.73
2018-08-12T11:19:16.793Z,98508.42
2018-08-12T11:21:44.960Z,98507.87
2018-08-12T11:24:13.162Z,98510.23
2018-08-12T11:26:41.281Z,98507.82
2018-08-12T11:29:09.570Z,98508.35
2018-08-12T11:31:37.674Z,98494.72
2018-08-12T11:34:05.843Z,98497.87
2018-08-12T11:36:34.827Z,98487.45
2018-08-12T11:39:02.966Z,98489.34
2018-08-12T11:41:31.086Z,98477.83
2018-08-12T11:43:59.330Z,98484.00
2018-08-12T11:46:27.478Z,98478.41
2018-08-12T11:48:55.627Z,98468.19
2018-08-12T11:51:23.947Z,98458.27
2018-08-12T11:53:52.073Z,98458.27
2018-08-12T11:56:20.226Z,98454.78
2018-08-12T11:58:48.374Z,98455.61
2018-08-12T12:01:16.523Z,98444.39
2018-08-12T12:03:44.652Z,98444.92
2018-08-12T12:06:13.201Z,98440.38
2018-08-12T12:08:41.328Z,98444.09
2018-08-12T12:11:09.536Z,98435.82
2018-08-12T12:13:37.638Z,98423.27
2018-08-12T12:16:05.933Z,98419.81
2018-08-12T12:18:34.073Z,98418.45
2018-08-12T12:21:02.530Z,98413.59
2018-08-12T12:23:30.682Z,98409.59
2018-08-12T12:25:58.828Z,98406.92
2018-08-12T12:28:27.066Z,98396.26
2018-08-12T12:30:55.215Z,98400.23
2018-08-12T12:33:23.363Z,98387.95
2018-08-12T12:35:51.498Z,98388.77
2018-08-12T12:38:19.620Z,98389.02
2018-08-12T12:40:47.770Z,98384.73
2018-08-12T12:43:15.918Z,98386.31
2018-08-12T12:45:44.461Z,98380.44
2018-08-12T12:48:12.842Z,98375.34
2018-08-12T12:50:41.022Z,98372.88
2018-08-12T12:53:09.136Z,98366.45
2018-08-12T12:55:37.260Z,98369.61
2018-08-12T12:58:05.432Z,98359.69
2018-08-12T13:00:33.799Z,98366.06
2018-08-12T13:03:02.075Z,98360.95
2018-08-12T13:05:30.220Z,98358.53
2018-08-12T13:07:58.384Z,98360.36
2018-08-12T13:10:26.594Z,98353.35
2018-08-12T13:12:54.752Z,98352.52
2018-08-12T13:15:22.886Z,98343.06
2018-08-12T13:17:51.030Z,98348.09
2018-08-12T13:20:20.405Z,98342.22
2018-08-12T13:22:49.202Z,98333.25
2018-08-12T13:25:18.914Z,98335.12
2018-08-12T13:27:47.294Z,98330.61
2018-08-12T13:30:16.701Z,98331.59
2018-08-12T13:32:46.024Z,98320.10
2018-08-12T13:35:14.306Z,98321.45
2018-08-12T13:37:42.531Z,98317.48
2018-08-12T13:40:12.509Z,98317.45
2018-08-12T13:42:41.399Z,98322.80
2018-08-12T13:45:10.812Z,98311.80
2018-08-12T13:47:39.418Z,98308.84
2018-08-12T13:50:10.153Z,98308.27
2018-08-12T13:52:38.277Z,98309.56
2018-08-12T13:55:06.734Z,98303.96
2018-08-12T13:57:35.345Z,98286.81
2018-08-12T14:00:03.506Z,98281.73
2018-08-12T14:02:31.659Z,98283.89
2018-08-12T14:04:59.777Z,98284.70
2018-08-12T14:07:27.963Z,98280.13
2018-08-12T14:09:56.271Z,98273.19
2018-08-12T14:12:24.395Z,98273.47
2018-08-12T14:14:52.539Z,98268.66
2018-08-12T14:17:20.765Z,98263.34
2018-08-12T14:19:48.965Z,98256.84
2018-08-12T14:22:17.279Z,98253.36
2018-08-12T14:24:45.465Z,98245.33
2018-08-12T14:27:13.746Z,98246.23
2018-08-12T14:29:42.050Z,98243.75
2018-08-12T14:32:10.302Z,98240.25
2018-08-12T14:34:38.866Z,98227.12
2018-08-12T14:37:07.094Z,98228.20
2018-08-12T14:39:35.233Z,98227.41
2018-08-12T14:42:03.369Z,98228.50
2018-08-12T14:44:31.570Z,98233.05
2018-08-12T14:46:59.819Z,98221.25
2018-08-12T14:49:27.935Z,98217.23
2018-08-12T14:51:56.181Z,98209.38
2018-08-12T14:54:24.343Z,98207.42
2018-08-12T14:56:52.475Z,98202.69
2018-08-12T14:59:20.670Z,98204.36
2018-08-12T15:01:48.801Z,98199.53
2018-08-12T15:04:17.382Z,98188.83
2018-08-12T15:06:46.339Z,98188.78
2018-08-12T15:09:14.474Z,98185.05
2018-08-12T15:11:42.778Z,98181.23
2018-08-12T15:14:10.913Z,98175.86
2018-08-12T15:16:39.318Z,98170.00
2018-08-12T15:19:07.430Z,98166.56
2018-08-12T15:21:35.576Z,98166.52
2018-08-12T15:24:03.739Z,98154.73
2018-08-12T15:26:31.897Z,98163.82
2018-08-12T15:29:00.114Z,98153.41
2018-08-12T15:31:28.333Z,98151.77
2018-08-12T15:33:56.497Z,98152.77
2018-08-12T15:36:24.812Z,98152.14
2018-08-12T15:38:52.942Z,98145.50
2018-08-12T15:41:21.192Z,98137.70
2018-08-12T15:43:49.342Z,98138.22
2018-08-12T15:46:17.498Z,98129.67
2018-08-12T15:48:45.634Z,98127.23
2018-08-12T15:51:13.832Z,98123.91
2018-08-12T15:53:41.951Z,98114.78
2018-08-12T15:56:10.194Z,98119.89
2018-08-12T15:58:38.376Z,98121.47
2018-08-12T16:01:06.754Z,98110.81
2018-08-12T16:03:34.997Z,98108.94
2018-08-12T16:06:03.303Z,98107.84
2018-08-12T16:08:31.454Z,98100.62
2018-08-12T16:10:59.592Z,98101.05
2018-08-12T16:13:27.830Z,98097.03
2018-08-12T16:15:56.039Z,98092.19
2018-08-12T16:18:24.499Z,98101.72
2018-08-12T16:20:52.643Z,98086.13
2018-08-12T16:23:20.900Z,98086.21
2018-08-12T16:25:49.038Z,98081.91
2018-08-12T16:28:17.178Z,98074.98
2018-08-12T16:30:45.599Z,98073.23
2018-08-12T16:33:13.760Z,98072.87
2018-08-12T16:35:42.463Z,98067.72
2018-08-12T16:38:10.651Z,98069.20
2018-08-12T16:40:38.895Z,98063.03
2018-08-12T16:43:07.362Z,98057.44
2018-08-12T16:45:35.554Z,98053.42
2018-08-12T16:48:03.705Z,98045.31
2018-08-12T16:50:32.120Z,98040.49
2018-08-12T16:53:00.240Z,98049.40
2018-08-12T16:55:28.638Z,98047.79
2018-08-12T16:57:56.870Z,98049.43
2018-08-12T17:00:26.794Z,98043.53
2018-08-12T17:02:54.962Z,98043.77
2018-08-12T17:05:23.791Z,98026.34
2018-08-12T17:07:52.160Z,98031.91
2018-08-12T17:10:20.818Z,98026.19
2018-08-12T17:12:49.037Z,98030.11
2018-08-12T17:15:19.790Z,98034.67
2018-08-12T17:17:48.623Z,98037.95
2018-08-12T17:20:17.958Z,98037.21
2018-08-12T17:22:46.738Z,98040.63
2018-08-12T17:25:15.035Z,98038.75
2018-08-12T17:27:43.420Z,98034.44
2018-08-12T17:30:13.293Z,98027.97
2018-08-12T17:32:41.464Z,98032.20
2018-08-12T17:35:10.283Z,98024.69
2018-08-12T17:37:38.991Z,98029.52
2018-08-12T17:40:09.166Z,98031.09
2018-08-12T17:42:37.450Z,98029.21
2018-08-12T17:45:06.972Z,98034.20
2018-08-12T17:47:35.143Z,98033.94
2018-08-12T17:50:03.370Z,98028.17
2018-08-12T17:52:31.607Z,98032.49
2018-08-12T17:54:59.703Z,98044.56
2018-08-12T17:57:27.958Z,98044.26
2018-08-12T17:59:56.153Z,98043.45
2018-08-12T18:02:24.556Z,98044.05
2018-08-12T18:04:52.795Z,98051.59
2018-08-12T18:07:21.027Z,98050.52
2018-08-12T18:09:49.327Z,98049.48
2018-08-12T18:12:17.664Z,98048.44
2018-08-12T18:14:45.778Z,98053.80
2018-08-12T18:17:14.091Z,98055.38
2018-08-12T18:19:42.235Z,98064.76
2018-08-12T18:22:10.554Z,98061.03
2018-08-12T18:24:38.857Z,98065.13
2018-08-12T18:27:07.104Z,98063.55
2018-08-12T18:29:35.363Z,98064.62
2018-08-12T18:32:04.068Z,98064.62
2018-08-12T18:34:32.462Z,98068.78
2018-08-12T18:37:03.410Z,98067.42
2018-08-12T18:39:31.566Z,98066.66
2018-08-12T18:41:59.800Z,98066.43
2018-08-12T18:44:27.914Z,98066.03
2018-08-12T18:46:56.092Z,98078.47
2018-08-12T18:49:24.455Z,98075.98
2018-08-12T18:51:52.714Z,98078.77
2018-08-12T18:54:21.276Z,98077.69
2018-08-12T18:56:49.402Z,98079.39
2018-08-12T18:59:17.863Z,98088.33
2018-08-12T19:01:46.079Z,98086.17
2018-08-12T19:04:14.246Z,98087.33
2018-08-12T19:06:42.486Z,98088.78
2018-08-12T19:09:11.538Z,98093.47
2018-08-12T19:11:39.780Z,98093.05
2018-08-12T19:14:08.295Z,98091.12
2018-08-12T19:16:36.630Z,98088.44
2018-08-12T19:19:05.127Z,98101.10
2018-08-12T19:21:33.342Z,98100.94
2018-08-12T19:24:01.687Z,98097.77
2018-08-12T19:26:30.235Z,98100.75
2018-08-12T19:28:58.547Z,98097.30
2018-08-12T19:31:27.085Z,98097.83
2018-08-12T19:33:55.398Z,98091.97
2018-08-12T19:36:23.842Z,98095.22
2018-08-12T19:38:52.067Z,98092.34
2018-08-12T19:41:20.254Z,98088.15
2018-08-12T19:43:48.497Z,98089.53
2018-08-12T19:46:16.619Z,98092.59
2018-08-12T19:48:45.047Z,98096.15
2018-08-12T19:51:14.370Z,98086.53
2018-08-12T19:53:43.182Z,98085.25
2018-08-12T19:56:12.060Z,98084.25
2018-08-12T19:58:40.375Z,98087.01
2018-08-12T20:01:08.626Z,98090.30
2018-08-12T20:03:36.750Z,98086.58
2018-08-12T20:06:05.262Z,98087.45
2018-08-12T20:08:33.407Z,98084.27
2018-08-12T20:11:02.594Z,98072.49
2018-08-12T20:13:30.818Z,98079.27
2018-08-12T20:15:59.223Z,98072.86
2018-08-12T20:18:27.495Z,98074.51
2018-08-12T20:20:55.702Z,98079.38
2018-08-12T20:23:24.687Z,98075.11
2018-08-12T20:25:53.040Z,98070.63
2018-08-12T20:28:21.497Z,98068.78
2018-08-12T20:30:49.615Z,98065.05
2018-08-12T20:33:17.853Z,98065.13
2018-08-12T20:35:45.942Z,98062.17
2018-08-12T20:38:14.185Z,98063.28
2018-08-12T20:40:42.499Z,98057.98
2018-08-12T20:43:10.606Z,98057.41
2018-08-12T20:45:38.764Z,98052.92
2018-08-12T20:48:06.975Z,98061.80
2018-08-12T20:50:35.095Z,98064.25
2018-08-12T20:53:03.303Z,98056.07
2018-08-12T20:55:31.402Z,98066.66
2018-08-12T20:57:59.967Z,98066.86
2018-08-12T21:00:28.133Z,98070.36
2018-08-12T21:02:56.379Z,98067.66
2018-08-12T21:05:25.129Z,98054.41
2018-08-12T21:07:53.222Z,98058.84
2018-08-12T21:10:21.498Z,98065.16
2018-08-12T21:12:49.684Z,98058.55
2018-08-12T21:15:17.787Z,98056.52
2018-08-12T21:17:46.324Z,98053.39
2018-08-12T21:20:14.447Z,98066.60
2018-08-12T21:22:42.584Z,98057.40
2018-08-12T21:25:10.808Z,98050.48
2018-08-12T21:27:39.030Z,98059.92
2018-08-12T21:30:07.550Z,98054.62
2018-08-12T21:32:35.825Z,98050.39
2018-08-12T21:35:03.976Z,98048.83
2018-08-12T21:37:32.158Z,98052.09
2018-08-12T21:40:24.727Z,98057.80
2018-08-12T21:42:53.022Z,98053.92
2018-08-12T21:45:21.210Z,98054.27
2018-08-12T21:47:49.328Z,98053.81
2018-08-12T21:50:17.458Z,98057.34
2018-08-12T21:52:46.195Z,98056.37
2018-08-12T21:55:14.511Z,98058.34
2018-08-12T21:57:42.807Z,98060.83
2018-08-12T22:00:13.735Z,98064.83
2018-08-12T22:02:46.520Z,98057.15
2018-08-12T22:05:15.012Z,98039.75
2018-08-12T22:07:43.198Z,98055.98
2018-08-12T22:10:11.487Z,98062.47
2018-08-12T22:12:39.731Z,98062.48
2018-08-12T22:15:08.543Z,98057.48
2018-08-12T22:17:37.049Z,98065.84
2018-08-12T22:20:05.913Z,98067.75
2018-08-12T22:22:34.569Z,98063.56
2018-08-12T22:25:02.691Z,98064.66
2018-08-12T22:27:30.987Z,98058.84
2018-08-12T22:29:59.247Z,98064.72
2018-08-12T22:32:27.614Z,98056.21
2018-08-12T22:34:58.687Z,98051.44
2018-08-12T22:37:26.967Z,98047.44
2018-08-12T22:39:55.102Z,98047.67
2018-08-12T22:42:23.223Z,98047.91
2018-08-12T22:44:52.347Z,98047.28
2018-08-12T22:47:20.543Z,98043.44
2018-08-12T22:49:48.752Z,98046.27
2018-08-12T22:52:16.939Z,98039.27
2018-08-12T22:54:45.051Z,98036.02
2018-08-12T22:57:13.454Z,98041.84
2018-08-12T22:59:41.719Z,98037.78
2018-08-12T23:02:10.162Z,98037.49
2018-08-12T23:04:38.286Z,98043.36
2018-08-12T23:07:06.482Z,98031.56
2018-08-12T23:09:34.779Z,98029.16
2018-08-12T23:12:02.923Z,98025.38
2018-08-12T23:14:31.040Z,98025.92
2018-08-12T23:17:00.918Z,98025.63
2018-08-12T23:19:29.303Z,98021.88
2018-08-12T23:21:57.698Z,98015.20
2018-08-12T23:24:25.794Z,98023.70
2018-08-12T23:26:54.100Z,98015.44
2018-08-12T23:29:22.258Z,98014.09
2018-08-12T23:31:50.522Z,98015.14
2018-08-12T23:34:19.012Z,98014.05
2018-08-12T23:36:47.100Z,98012.70
2018-08-12T23:39:15.490Z,98011.08
2018-08-12T23:41:43.660Z,98008.16
2018-08-12T23:44:11.810Z,98012.66
2018-08-12T23:46:40.010Z,98006.53
2018-08-12T23:49:08.138Z,98006.23
2018-08-12T23:51:36.400Z,98003.56
2018-08-12T23:54:04.654Z,98003.56
2018-08-12T23:56:32.751Z,97997.70
2018-08-12T23:59:00.841Z,97996.89
